Terminal Aerodrome Forecast
Issued by NWS

Home | Current Version | Previous Version | Text Only | Print | Product List | Glossary On
Versions: 1 2 3 4 5 6 7 8 9 10 11 12 13
308
FTUS42 KMLB 251736
TAFISM
TAF
KISM 251736Z 2518/2618 30004KT P6SM SCT050 SCT250
     FM252000 21006KT P6SM SCT060 SCT300
     FM260000 VRB03KT P6SM SCT300
     FM261300 17002KT P6SM SCT025 SCT300=

USA.gov is the U.S. government's official web portal to all federal, state and local government web resources and services.